Time;durP1;ratioP1;P1;durP2;ratioP2;P2;SDS_P1;SDS_P2;PMS_P1;PMS_P2;Temp;Humidity;BMP_temperature;BMP_pressure;BME280_temperature;BME280_humidity;BME280_pressure;Samples;Min_cycle;Max_cycle;Signal;HPM_P1;HPM_P2
2024/04/18 00:02:00;;;;;;;0.77;0.77;;;;;;;;;;6681007;26;20391;-76
2024/04/18 00:05:01;;;;;;;0.83;0.83;;;;;;;;;;6689696;26;20063;-75
2024/04/18 00:08:01;;;;;;;0.70;0.70;;;;;;;;;;6697820;26;20421;-75
2024/04/18 00:11:01;;;;;;;1.00;0.83;;;;;;;;;;6725338;26;19991;-76
2024/04/18 00:14:01;;;;;;;0.90;0.77;;;;;;;;;;6694749;26;19996;-76
2024/04/18 00:17:02;;;;;;;0.70;0.70;;;;;;;;;;6694825;26;20027;-75
2024/04/18 00:20:05;;;;;;;1.10;0.90;;;;;;;;;;6693298;26;20007;-76
2024/04/18 00:23:06;;;;;;;0.93;0.82;;;;;;;;;;6710642;26;20010;-75
2024/04/18 00:26:06;;;;;;;1.03;0.90;;;;;;;;;;6672636;26;19997;-75
2024/04/18 00:29:07;;;;;;;1.20;0.93;;;;;;;;;;6708531;26;20356;-75
2024/04/18 00:32:07;;;;;;;1.10;0.90;;;;;;;;;;6745407;26;20015;-76
2024/04/18 00:35:07;;;;;;;0.80;0.80;;;;;;;;;;6724713;26;20121;-76
2024/04/18 00:38:07;;;;;;;0.87;0.87;;;;;;;;;;6696313;26;20483;-76
2024/04/18 00:41:09;;;;;;;0.93;0.87;;;;;;;;;;6722169;26;20468;-76
2024/04/18 00:44:10;;;;;;;0.70;0.70;;;;;;;;;;6739273;26;20348;-76
2024/04/18 00:47:11;;;;;;;1.05;0.95;;;;;;;;;;6725244;26;20007;-75
2024/04/18 00:50:11;;;;;;;;;;;;;;;;;;6692964;26;20004;-75
2024/04/18 00:53:12;;;;;;;0.90;0.90;;;;;;;;;;6710084;26;19933;-75
2024/04/18 00:56:12;;;;;;;0.73;0.70;;;;;;;;;;6697341;26;20011;-76
2024/04/18 00:59:14;;;;;;;1.00;0.90;;;;;;;;;;6702820;26;20481;-76
2024/04/18 01:02:14;;;;;;;1.10;0.95;;;;;;;;;;6710119;26;20011;-75
2024/04/18 01:05:15;;;;;;;0.97;0.87;;;;;;;;;;6683147;26;20003;-75
2024/04/18 01:08:15;;;;;;;1.10;1.00;;;;;;;;;;6694871;26;20472;-76
2024/04/18 01:11:15;;;;;;;1.20;1.07;;;;;;;;;;6658525;26;20489;-75
2024/04/18 01:14:16;;;;;;;1.00;0.90;;;;;;;;;;6683309;26;19992;-75
2024/04/18 01:17:16;;;;;;;1.10;1.00;;;;;;;;;;6723323;26;20455;-75
2024/04/18 01:20:17;;;;;;;0.90;0.90;;;;;;;;;;6724952;26;20358;-75
2024/04/18 01:23:18;;;;;;;1.10;1.00;;;;;;;;;;6721703;26;20011;-75
2024/04/18 01:26:18;;;;;;;1.30;1.20;;;;;;;;;;6669190;26;20528;-75
2024/04/18 01:29:18;;;;;;;1.20;1.10;;;;;;;;;;6702928;26;20464;-75
2024/04/18 01:32:19;;;;;;;1.10;1.00;;;;;;;;;;6655002;26;20023;-75
2024/04/18 01:35:19;;;;;;;1.13;1.03;;;;;;;;;;6700298;26;19995;-75
2024/04/18 01:38:19;;;;;;;1.07;0.87;;;;;;;;;;6723403;26;20011;-75
2024/04/18 01:41:21;;;;;;;1.03;1.00;;;;;;;;;;6724508;26;20007;-75
2024/04/18 01:44:21;;;;;;;1.75;1.15;;;;;;;;;;6717639;26;20012;-75
2024/04/18 01:47:21;;;;;;;1.20;1.10;;;;;;;;;;6724300;26;20538;-75
2024/04/18 01:50:21;;;;;;;1.20;1.10;;;;;;;;;;6720059;26;20534;-75
2024/04/18 01:53:22;;;;;;;1.37;1.07;;;;;;;;;;6687804;26;19996;-75
2024/04/18 01:56:23;;;;;;;1.30;1.20;;;;;;;;;;6697552;26;20000;-76
2024/04/18 01:59:23;;;;;;;1.67;1.37;;;;;;;;;;6695583;26;20317;-76
2024/04/18 02:02:24;;;;;;;1.30;1.10;;;;;;;;;;6697949;26;20007;-76
2024/04/18 02:05:24;;;;;;;1.25;1.00;;;;;;;;;;6697618;26;20028;-75
2024/04/18 02:08:25;;;;;;;1.40;1.30;;;;;;;;;;6701195;26;20337;-75
2024/04/18 02:11:25;;;;;;;1.40;1.20;;;;;;;;;;6682459;26;20390;-75
2024/04/18 02:14:25;;;;;;;1.43;1.10;;;;;;;;;;6724649;26;20448;-75
2024/04/18 02:17:25;;;;;;;2.07;1.37;;;;;;;;;;6687397;26;20332;-75
2024/04/18 02:20:26;;;;;;;1.37;1.27;;;;;;;;;;6722305;26;20080;-77
2024/04/18 02:23:26;;;;;;;1.27;1.17;;;;;;;;;;6686285;26;20452;-77
2024/04/18 02:26:27;;;;;;;1.47;1.37;;;;;;;;;;6718778;26;20506;-76
2024/04/18 02:29:27;;;;;;;1.63;1.10;;;;;;;;;;6703512;26;20003;-77
2024/04/18 02:32:27;;;;;;;1.40;1.20;;;;;;;;;;6692380;26;20014;-77
2024/04/18 02:35:27;;;;;;;1.17;1.07;;;;;;;;;;6680334;26;20069;-77
2024/04/18 02:38:28;;;;;;;1.37;1.10;;;;;;;;;;6682581;26;19996;-77
2024/04/18 02:41:28;;;;;;;2.03;1.30;;;;;;;;;;6684955;26;20480;-77
2024/04/18 02:44:28;;;;;;;1.40;1.27;;;;;;;;;;6722746;26;20036;-77
2024/04/18 02:47:29;;;;;;;1.40;1.13;;;;;;;;;;6723270;26;20003;-77
2024/04/18 02:50:29;;;;;;;1.50;1.37;;;;;;;;;;6700032;26;20071;-77
2024/04/18 02:53:29;;;;;;;1.23;1.13;;;;;;;;;;6706263;26;20523;-77
2024/04/18 02:56:29;;;;;;;1.27;1.17;;;;;;;;;;6719661;26;20357;-77
2024/04/18 02:59:29;;;;;;;1.57;1.30;;;;;;;;;;6711731;26;20337;-77
2024/04/18 03:02:30;;;;;;;1.10;1.00;;;;;;;;;;6691834;26;20455;-77
2024/04/18 03:05:30;;;;;;;1.97;1.40;;;;;;;;;;6722346;26;20517;-77
2024/04/18 03:08:30;;;;;;;1.70;1.33;;;;;;;;;;6717708;26;20460;-77
2024/04/18 03:11:31;;;;;;;1.53;1.43;;;;;;;;;;6684881;26;20332;-77
2024/04/18 03:14:31;;;;;;;1.50;1.40;;;;;;;;;;6718798;26;19987;-77
2024/04/18 03:17:31;;;;;;;2.03;1.23;;;;;;;;;;6720540;26;20003;-77
2024/04/18 03:20:31;;;;;;;1.17;1.07;;;;;;;;;;6730016;26;20035;-77
2024/04/18 03:23:32;;;;;;;1.70;1.43;;;;;;;;;;6718053;26;20002;-77
2024/04/18 03:26:32;;;;;;;2.03;1.10;;;;;;;;;;6679767;26;20000;-77
2024/04/18 03:29:32;;;;;;;1.40;1.30;;;;;;;;;;6707905;26;19996;-77
2024/04/18 03:32:35;;;;;;;1.30;1.20;;;;;;;;;;6695333;26;20444;-77
2024/04/18 03:35:38;;;;;;;1.13;1.00;;;;;;;;;;6716391;26;20013;-76
2024/04/18 03:38:38;;;;;;;1.70;1.35;;;;;;;;;;6705894;26;20001;-77
2024/04/18 03:41:38;;;;;;;1.27;1.17;;;;;;;;;;6718221;26;19996;-77
2024/04/18 03:44:40;;;;;;;1.60;1.23;;;;;;;;;;6714418;26;20000;-76
2024/04/18 03:47:41;;;;;;;1.23;1.08;;;;;;;;;;6726778;26;20000;-77
2024/04/18 03:50:41;;;;;;;1.50;1.40;;;;;;;;;;6692957;26;20025;-77
2024/04/18 03:53:41;;;;;;;1.20;1.10;;;;;;;;;;6723143;26;20469;-77
2024/04/18 03:56:42;;;;;;;1.23;1.10;;;;;;;;;;6691012;26;19988;-77
2024/04/18 03:59:42;;;;;;;2.37;1.07;;;;;;;;;;6664321;26;20072;-76
2024/04/18 04:02:42;;;;;;;1.40;1.20;;;;;;;;;;6719607;26;20057;-76
2024/04/18 04:05:42;;;;;;;1.10;1.00;;;;;;;;;;6725686;26;20482;-77
2024/04/18 04:08:43;;;;;;;1.10;0.90;;;;;;;;;;6722807;26;20453;-76
2024/04/18 04:11:43;;;;;;;1.30;1.20;;;;;;;;;;6716686;26;20450;-76
2024/04/18 04:14:43;;;;;;;1.37;1.07;;;;;;;;;;6727306;26;20011;-76
2024/04/18 04:17:44;;;;;;;1.30;1.10;;;;;;;;;;6698101;26;20019;-77
2024/04/18 04:20:44;;;;;;;0.98;0.98;;;;;;;;;;6700500;26;20083;-77
2024/04/18 04:23:45;;;;;;;0.90;0.90;;;;;;;;;;6648871;26;20507;-77
2024/04/18 04:26:45;;;;;;;2.43;1.13;;;;;;;;;;6692736;26;20449;-77
2024/04/18 04:29:45;;;;;;;1.53;1.00;;;;;;;;;;6679152;26;20005;-77
2024/04/18 04:32:45;;;;;;;0.80;0.80;;;;;;;;;;6705833;26;20484;-77
2024/04/18 04:35:46;;;;;;;1.03;0.87;;;;;;;;;;6697278;26;20437;-77
2024/04/18 04:38:46;;;;;;;0.80;0.80;;;;;;;;;;6718604;26;19996;-77
2024/04/18 04:41:46;;;;;;;1.20;1.10;;;;;;;;;;6696868;26;20015;-76
2024/04/18 04:44:46;;;;;;;1.40;1.20;;;;;;;;;;6684556;26;20024;-76
2024/04/18 04:47:49;;;;;;;2.23;1.80;;;;;;;;;;6709127;26;19992;-77
2024/04/18 04:50:53;;;;;;;1.42;1.20;;;;;;;;;;6703646;26;20362;-76
2024/04/18 04:53:53;;;;;;;1.30;1.20;;;;;;;;;;6683307;26;20404;-76
2024/04/18 04:56:53;;;;;;;1.13;1.03;;;;;;;;;;6701385;26;20004;-76
2024/04/18 04:59:53;;;;;;;1.20;1.10;;;;;;;;;;6704986;26;20425;-79
2024/04/18 05:02:54;;;;;;;1.83;1.23;;;;;;;;;;6657376;26;20523;-77
2024/04/18 05:05:54;;;;;;;0.97;0.90;;;;;;;;;;6677779;26;20107;-78
2024/04/18 05:08:54;;;;;;;1.20;1.10;;;;;;;;;;6706801;26;20004;-77
2024/04/18 05:11:54;;;;;;;3.80;1.20;;;;;;;;;;6722445;26;20003;-77
2024/04/18 05:14:55;;;;;;;1.37;1.27;;;;;;;;;;6680099;26;20000;-77
2024/04/18 05:17:55;;;;;;;1.60;0.90;;;;;;;;;;6680005;26;20384;-78
2024/04/18 05:20:55;;;;;;;1.20;1.00;;;;;;;;;;6678228;26;20368;-77
2024/04/18 05:23:55;;;;;;;1.33;1.00;;;;;;;;;;6676300;26;20010;-77
2024/04/18 05:26:56;;;;;;;1.10;1.00;;;;;;;;;;6333300;26;10000516;-78
2024/04/18 05:33:15;;;;;;;1.10;1.00;;;;;;;;;;6720100;26;19992;-77
2024/04/18 05:36:15;;;;;;;0.73;0.73;;;;;;;;;;6700859;26;20388;-78
2024/04/18 05:39:15;;;;;;;1.00;1.00;;;;;;;;;;6721197;26;19991;-77
2024/04/18 05:42:16;;;;;;;1.93;1.40;;;;;;;;;;6687064;26;20007;-78
2024/04/18 05:45:16;;;;;;;1.40;1.10;;;;;;;;;;6725770;26;19992;-77
2024/04/18 05:48:17;;;;;;;2.30;1.50;;;;;;;;;;6690431;26;20000;-78
2024/04/18 05:51:17;;;;;;;1.58;1.42;;;;;;;;;;6682889;26;20004;-77
2024/04/18 05:54:18;;;;;;;3.73;1.30;;;;;;;;;;6712356;26;20493;-77
2024/04/18 05:57:18;;;;;;;1.60;1.27;;;;;;;;;;6701132;26;20468;-77
2024/04/18 06:00:18;;;;;;;1.23;1.03;;;;;;;;;;6691390;26;20321;-75
2024/04/18 06:03:19;;;;;;;0.80;0.80;;;;;;;;;;6723888;26;20023;-79
2024/04/18 06:06:19;;;;;;;1.13;1.02;;;;;;;;;;6695678;26;20014;-75
2024/04/18 06:09:19;;;;;;;1.13;1.00;;;;;;;;;;6696398;26;20006;-76
2024/04/18 06:12:20;;;;;;;0.87;0.87;;;;;;;;;;6685630;26;20445;-77
2024/04/18 06:15:20;;;;;;;0.80;0.80;;;;;;;;;;6692572;26;20433;-77
2024/04/18 06:18:20;;;;;;;1.20;0.90;;;;;;;;;;6720921;26;19992;-78
2024/04/18 06:21:21;;;;;;;1.40;0.77;;;;;;;;;;6681003;26;19996;-78
2024/04/18 06:24:21;;;;;;;1.07;1.00;;;;;;;;;;6683464;26;20007;-78
2024/04/18 06:27:21;;;;;;;1.20;0.80;;;;;;;;;;6686291;26;19996;-78
2024/04/18 06:30:22;;;;;;;0.90;0.90;;;;;;;;;;6702942;26;20415;-78
2024/04/18 06:33:25;;;;;;;0.83;0.80;;;;;;;;;;6701133;26;20000;-80
2024/04/18 06:36:25;;;;;;;0.90;0.80;;;;;;;;;;6678653;26;19996;-75
2024/04/18 06:39:25;;;;;;;0.70;0.70;;;;;;;;;;6727373;26;20031;-76
2024/04/18 06:42:26;;;;;;;1.10;1.00;;;;;;;;;;6699906;26;20347;-76
2024/04/18 06:45:26;;;;;;;0.80;0.80;;;;;;;;;;6680548;26;20329;-77
2024/04/18 06:48:26;;;;;;;1.30;1.13;;;;;;;;;;6681413;26;20455;-77
2024/04/18 06:51:27;;;;;;;1.07;0.90;;;;;;;;;;6707289;26;19999;-78
2024/04/18 06:54:27;;;;;;;0.70;0.70;;;;;;;;;;6709961;26;20003;-79
2024/04/18 06:57:27;;;;;;;1.17;0.80;;;;;;;;;;6711170;26;20027;-75
2024/04/18 07:00:28;;;;;;;0.73;0.70;;;;;;;;;;6723860;26;20000;-76
2024/04/18 07:03:30;;;;;;;1.00;0.82;;;;;;;;;;6721948;26;20004;-75
2024/04/18 07:06:30;;;;;;;0.70;0.65;;;;;;;;;;6718755;26;20426;-75
2024/04/18 07:09:30;;;;;;;0.70;0.70;;;;;;;;;;6684174;26;20351;-76
2024/04/18 07:12:31;;;;;;;0.80;0.80;;;;;;;;;;6694620;26;20498;-76
2024/04/18 07:15:31;;;;;;;0.97;0.67;;;;;;;;;;6687543;26;20363;-76
2024/04/18 07:18:32;;;;;;;0.63;0.60;;;;;;;;;;6712968;26;20032;-76
2024/04/18 07:21:32;;;;;;;0.75;0.63;;;;;;;;;;6684240;26;20012;-76
2024/04/18 07:24:32;;;;;;;0.73;0.73;;;;;;;;;;6723900;26;20466;-77
2024/04/18 07:27:33;;;;;;;0.77;0.77;;;;;;;;;;6689706;26;20078;-76
2024/04/18 07:30:33;;;;;;;0.83;0.60;;;;;;;;;;6689888;26;19991;-76
2024/04/18 07:33:33;;;;;;;0.83;0.67;;;;;;;;;;6727703;26;20035;-76
2024/04/18 07:36:34;;;;;;;1.10;0.80;;;;;;;;;;6715034;26;20321;-76
2024/04/18 07:39:34;;;;;;;0.70;0.70;;;;;;;;;;6728875;26;20006;-76
2024/04/18 07:42:34;;;;;;;0.83;0.70;;;;;;;;;;6728551;26;20010;-77
2024/04/18 07:45:35;;;;;;;1.30;0.80;;;;;;;;;;6684066;26;20073;-77
2024/04/18 07:48:35;;;;;;;1.52;1.17;;;;;;;;;;6687686;26;20448;-77
2024/04/18 07:51:37;;;;;;;1.20;0.93;;;;;;;;;;6728299;26;20014;-77
2024/04/18 07:54:37;;;;;;;1.23;0.85;;;;;;;;;;6774596;26;20432;-77
2024/04/18 07:57:37;;;;;;;0.93;0.80;;;;;;;;;;6747364;26;20067;-77
2024/04/18 08:00:37;;;;;;;0.50;0.50;;;;;;;;;;6710641;26;20716;-77
2024/04/18 08:03:38;;;;;;;1.00;0.70;;;;;;;;;;6729723;26;20010;-77
2024/04/18 08:06:38;;;;;;;0.90;0.68;;;;;;;;;;6707866;26;20035;-77
2024/04/18 08:09:39;;;;;;;1.00;0.70;;;;;;;;;;6337408;26;10000086;-78
2024/04/18 08:12:39;;;;;;;0.70;0.63;;;;;;;;;;6772368;26;20006;-77
2024/04/18 08:15:39;;;;;;;0.50;0.50;;;;;;;;;;6718759;26;20049;-77
2024/04/18 08:18:39;;;;;;;0.63;0.50;;;;;;;;;;6697912;26;19992;-78
2024/04/18 08:21:40;;;;;;;0.60;0.60;;;;;;;;;;6713137;26;20015;-77
2024/04/18 08:24:40;;;;;;;0.97;0.60;;;;;;;;;;6706372;26;20007;-77
2024/04/18 08:27:40;;;;;;;0.83;0.60;;;;;;;;;;6726221;26;19991;-77
2024/04/18 08:30:40;;;;;;;0.60;0.57;;;;;;;;;;6696238;26;20036;-77
2024/04/18 08:33:41;;;;;;;0.60;0.60;;;;;;;;;;6720632;26;20065;-77
2024/04/18 08:36:41;;;;;;;0.77;0.50;;;;;;;;;;6676247;26;20016;-77
2024/04/18 08:39:41;;;;;;;0.80;0.53;;;;;;;;;;6701029;26;20561;-77
2024/04/18 08:42:41;;;;;;;0.57;0.57;;;;;;;;;;6652882;26;20354;-76
2024/04/18 08:45:43;;;;;;;0.33;0.33;;;;;;;;;;6693281;26;19995;-77
2024/04/18 08:48:43;;;;;;;0.60;0.50;;;;;;;;;;6679529;26;20015;-75
2024/04/18 08:51:44;;;;;;;0.50;0.50;;;;;;;;;;6711702;26;19995;-76
2024/04/18 08:54:44;;;;;;;0.50;0.50;;;;;;;;;;6708720;26;20027;-76
2024/04/18 08:57:48;;;;;;;0.40;0.40;;;;;;;;;;6708363;26;20007;-77
2024/04/18 09:00:48;;;;;;;0.60;0.47;;;;;;;;;;6652012;26;20004;-77
2024/04/18 09:03:53;;;;;;;0.70;0.50;;;;;;;;;;6693449;26;20222;-77
2024/04/18 09:06:53;;;;;;;1.08;0.70;;;;;;;;;;6723445;26;19991;-78
2024/04/18 09:10:03;;;;;;;0.57;0.50;;;;;;;;;;6694095;26;20471;-77
2024/04/18 09:13:03;;;;;;;0.60;0.50;;;;;;;;;;6704132;26;20035;-77
2024/04/18 09:16:04;;;;;;;0.83;0.50;;;;;;;;;;6708985;26;20003;-77
2024/04/18 09:19:04;;;;;;;1.00;0.60;;;;;;;;;;6705569;26;19999;-77
2024/04/18 09:22:04;;;;;;;0.47;0.47;;;;;;;;;;6713945;26;20011;-78
2024/04/18 09:25:08;;;;;;;1.37;0.63;;;;;;;;;;6695216;26;19996;-78
2024/04/18 09:28:08;;;;;;;0.40;0.40;;;;;;;;;;6652868;26;20078;-78
2024/04/18 09:31:09;;;;;;;0.60;0.60;;;;;;;;;;6692862;26;20004;-78
2024/04/18 09:34:13;;;;;;;0.40;0.40;;;;;;;;;;6692383;26;20007;-78
2024/04/18 09:37:15;;;;;;;0.73;0.65;;;;;;;;;;6726685;26;20015;-78
2024/04/18 09:40:16;;;;;;;1.08;0.70;;;;;;;;;;6690137;26;20015;-78
2024/04/18 09:43:16;;;;;;;0.70;0.70;;;;;;;;;;6712555;26;20049;-78
2024/04/18 09:46:17;;;;;;;0.53;0.53;;;;;;;;;;6722947;26;20000;-79
2024/04/18 09:49:18;;;;;;;1.58;0.63;;;;;;;;;;6685613;26;20012;-78
2024/04/18 09:52:19;;;;;;;0.50;0.50;;;;;;;;;;6714875;26;20429;-78
2024/04/18 09:55:19;;;;;;;1.38;0.65;;;;;;;;;;6747867;26;20132;-78
2024/04/18 09:58:22;;;;;;;0.40;0.40;;;;;;;;;;6724404;26;20356;-78
2024/04/18 10:01:22;;;;;;;0.65;0.45;;;;;;;;;;6731291;26;20390;-78
2024/04/18 10:04:23;;;;;;;0.50;0.50;;;;;;;;;;6723681;26;20000;-77
2024/04/18 10:07:24;;;;;;;1.00;0.60;;;;;;;;;;6705082;26;19988;-77
2024/04/18 10:10:25;;;;;;;0.68;0.50;;;;;;;;;;6722430;26;20356;-77
2024/04/18 10:13:25;;;;;;;0.93;0.50;;;;;;;;;;6697880;26;20035;-76
2024/04/18 10:16:26;;;;;;;1.00;0.67;;;;;;;;;;6664268;26;20007;-77
2024/04/18 10:19:28;;;;;;;0.40;0.40;;;;;;;;;;6691791;26;20046;-76
2024/04/18 10:22:31;;;;;;;0.55;0.45;;;;;;;;;;6714973;26;20010;-76
2024/04/18 10:25:36;;;;;;;1.27;0.50;;;;;;;;;;6688271;26;20425;-77
2024/04/18 10:28:37;;;;;;;0.82;0.60;;;;;;;;;;6678115;26;19996;-76
2024/04/18 10:31:37;;;;;;;0.50;0.50;;;;;;;;;;6691607;26;20011;-76
2024/04/18 10:34:39;;;;;;;0.57;0.40;;;;;;;;;;6697935;26;20097;-75
2024/04/18 10:37:47;;;;;;;1.33;0.55;;;;;;;;;;6687543;26;20233;-77
2024/04/18 10:41:00;;;;;;;0.68;0.50;;;;;;;;;;6689364;26;20330;-77
2024/04/18 10:44:01;;;;;;;0.73;0.50;;;;;;;;;;6711324;26;19996;-77
2024/04/18 10:47:02;;;;;;;0.40;0.40;;;;;;;;;;6723959;26;20458;-77
2024/04/18 10:50:02;;;;;;;0.63;0.50;;;;;;;;;;6690360;26;20010;-77
2024/04/18 10:53:03;;;;;;;0.90;0.63;;;;;;;;;;6720208;26;20014;-77
2024/04/18 10:56:03;;;;;;;1.08;0.60;;;;;;;;;;6691913;26;20389;-77
2024/04/18 10:59:06;;;;;;;1.65;0.60;;;;;;;;;;6680851;26;19988;-77
2024/04/18 11:02:07;;;;;;;0.73;0.45;;;;;;;;;;6684386;26;20004;-77
2024/04/18 11:05:08;;;;;;;0.65;0.50;;;;;;;;;;6710091;26;20033;-77
2024/04/18 11:08:08;;;;;;;0.52;0.52;;;;;;;;;;6666792;26;20000;-77
2024/04/18 11:11:09;;;;;;;0.47;0.47;;;;;;;;;;6699460;26;20502;-77
2024/04/18 11:14:09;;;;;;;0.57;0.57;;;;;;;;;;6693783;26;20380;-77
2024/04/18 11:17:09;;;;;;;0.50;0.50;;;;;;;;;;6678913;26;20040;-77
2024/04/18 11:20:12;;;;;;;0.50;0.40;;;;;;;;;;6723219;26;20405;-77
2024/04/18 11:23:13;;;;;;;0.88;0.73;;;;;;;;;;6702092;26;20441;-77
2024/04/18 11:26:13;;;;;;;1.23;0.50;;;;;;;;;;6732845;26;20020;-77
2024/04/18 11:29:13;;;;;;;0.60;0.60;;;;;;;;;;6687904;26;20019;-77
2024/04/18 11:32:13;;;;;;;0.77;0.57;;;;;;;;;;6694111;26;20465;-77
2024/04/18 11:35:14;;;;;;;0.90;0.80;;;;;;;;;;6678598;26;20433;-77
2024/04/18 11:38:17;;;;;;;0.53;0.53;;;;;;;;;;6674275;26;20352;-77
2024/04/18 11:41:17;;;;;;;0.50;0.50;;;;;;;;;;6715983;26;20003;-77
2024/04/18 11:44:17;;;;;;;0.80;0.80;;;;;;;;;;6714345;26;19991;-77
2024/04/18 11:47:18;;;;;;;0.57;0.57;;;;;;;;;;6724730;26;20040;-77
2024/04/18 11:50:18;;;;;;;0.97;0.73;;;;;;;;;;6690322;26;19995;-77
2024/04/18 11:53:18;;;;;;;0.70;0.70;;;;;;;;;;6719241;26;20028;-77
2024/04/18 11:56:19;;;;;;;0.63;0.60;;;;;;;;;;6722132;26;20040;-77
2024/04/18 11:59:19;;;;;;;1.67;0.80;;;;;;;;;;6724270;26;20476;-76
2024/04/18 12:02:19;;;;;;;1.10;0.73;;;;;;;;;;6686989;26;20004;-76
2024/04/18 12:05:19;;;;;;;2.07;0.90;;;;;;;;;;6703410;26;20011;-77
2024/04/18 12:08:20;;;;;;;0.70;0.70;;;;;;;;;;6719146;26;20472;-77
2024/04/18 12:11:20;;;;;;;0.70;0.60;;;;;;;;;;6697969;26;20341;-76
2024/04/18 12:14:20;;;;;;;0.70;0.70;;;;;;;;;;6697854;26;20010;-77
2024/04/18 12:17:21;;;;;;;1.10;0.90;;;;;;;;;;6656198;26;20102;-77
2024/04/18 12:20:22;;;;;;;0.80;0.80;;;;;;;;;;6714250;26;19996;-77
2024/04/18 12:23:22;;;;;;;0.95;0.75;;;;;;;;;;6699151;26;20004;-76
2024/04/18 12:26:23;;;;;;;0.82;0.50;;;;;;;;;;6693177;26;20031;-83
2024/04/18 12:29:23;;;;;;;0.47;0.47;;;;;;;;;;6690246;26;19998;-85
2024/04/18 12:32:26;;;;;;;1.00;0.90;;;;;;;;;;6700640;26;19996;-81
2024/04/18 12:35:26;;;;;;;0.88;0.70;;;;;;;;;;6682364;26;20418;-82
2024/04/18 12:38:26;;;;;;;1.90;0.73;;;;;;;;;;6712701;26;19995;-82
2024/04/18 12:41:26;;;;;;;0.87;0.70;;;;;;;;;;6697545;26;20499;-81
2024/04/18 12:44:27;;;;;;;0.90;0.77;;;;;;;;;;6691165;26;20425;-81
2024/04/18 12:47:27;;;;;;;0.90;0.63;;;;;;;;;;6683240;26;20379;-82
2024/04/18 12:50:27;;;;;;;1.30;0.97;;;;;;;;;;6682332;26;20003;-82
2024/04/18 12:53:28;;;;;;;2.63;1.90;;;;;;;;;;6683642;26;20336;-82
2024/04/18 12:56:28;;;;;;;2.17;1.23;;;;;;;;;;6682878;26;20012;-82
2024/04/18 12:59:29;;;;;;;1.23;1.00;;;;;;;;;;6683994;26;20004;-81
2024/04/18 13:02:29;;;;;;;1.08;0.98;;;;;;;;;;6710238;26;20032;-82
2024/04/18 13:05:29;;;;;;;1.00;0.90;;;;;;;;;;6682375;26;20011;-82
2024/04/18 13:08:29;;;;;;;0.90;0.70;;;;;;;;;;6666085;26;19991;-82
2024/04/18 13:11:30;;;;;;;1.10;1.00;;;;;;;;;;6720388;26;20454;-81
2024/04/18 13:14:31;;;;;;;0.80;0.77;;;;;;;;;;6694396;26;20000;-81
2024/04/18 13:17:31;;;;;;;0.70;0.70;;;;;;;;;;6726871;26;19987;-82
2024/04/18 13:20:31;;;;;;;0.73;0.67;;;;;;;;;;6701618;26;19996;-81
2024/04/18 13:23:32;;;;;;;0.80;0.67;;;;;;;;;;6703137;26;20014;-81
2024/04/18 13:26:33;;;;;;;0.57;0.57;;;;;;;;;;6718296;26;20001;-82
2024/04/18 13:29:33;;;;;;;0.77;0.63;;;;;;;;;;6696743;26;20012;-80
2024/04/18 13:32:34;;;;;;;1.13;0.67;;;;;;;;;;6682897;26;20023;-80
2024/04/18 13:35:34;;;;;;;0.68;0.60;;;;;;;;;;6692193;26;20003;-79
2024/04/18 13:38:34;;;;;;;1.13;0.87;;;;;;;;;;6725177;26;20068;-80
2024/04/18 13:41:42;;;;;;;0.80;0.67;;;;;;;;;;6691909;26;20010;-79
2024/04/18 13:44:43;;;;;;;1.00;0.65;;;;;;;;;;6724722;26;20003;-79
2024/04/18 13:47:43;;;;;;;1.20;0.67;;;;;;;;;;6675247;26;19995;-80
2024/04/18 13:50:44;;;;;;;0.83;0.80;;;;;;;;;;6725390;26;19995;-80
2024/04/18 13:53:45;;;;;;;0.60;0.60;;;;;;;;;;6694785;26;20091;-80
2024/04/18 13:56:45;;;;;;;0.70;0.52;;;;;;;;;;6723477;26;20006;-80
2024/04/18 13:59:47;;;;;;;2.17;0.77;;;;;;;;;;6705225;26;20441;-80
2024/04/18 14:02:47;;;;;;;0.60;0.60;;;;;;;;;;6690401;26;20005;-80
2024/04/18 14:05:48;;;;;;;0.93;0.77;;;;;;;;;;6685164;26;20000;-80
2024/04/18 14:08:48;;;;;;;0.73;0.60;;;;;;;;;;6650612;26;19996;-80
2024/04/18 14:11:48;;;;;;;0.70;0.60;;;;;;;;;;6681218;26;19992;-76
2024/04/18 14:14:55;;;;;;;0.93;0.67;;;;;;;;;;6706116;26;20027;-77
2024/04/18 14:21:14;;;;;;;0.85;0.68;;;;;;;;;;6717473;26;19996;-76
2024/04/18 14:24:14;;;;;;;1.67;0.80;;;;;;;;;;6677228;26;20489;-76
2024/04/18 14:27:15;;;;;;;0.80;0.70;;;;;;;;;;6661329;26;20007;-76
2024/04/18 14:30:15;;;;;;;0.80;0.70;;;;;;;;;;6720825;26;20455;-76
2024/04/18 14:33:15;;;;;;;0.70;0.70;;;;;;;;;;6691273;26;20496;-76
2024/04/18 14:36:16;;;;;;;0.63;0.57;;;;;;;;;;6692431;26;20444;-76
2024/04/18 14:39:16;;;;;;;2.20;0.97;;;;;;;;;;6665665;26;20328;-76
2024/04/18 14:42:16;;;;;;;1.33;0.70;;;;;;;;;;6698638;26;20097;-75
2024/04/18 14:45:16;;;;;;;0.90;0.77;;;;;;;;;;6690925;26;19999;-76
2024/04/18 14:48:17;;;;;;;0.70;0.60;;;;;;;;;;6721434;26;20051;-77
2024/04/18 14:51:17;;;;;;;0.50;0.50;;;;;;;;;;6706372;26;20015;-76
2024/04/18 14:54:18;;;;;;;0.80;0.63;;;;;;;;;;6705093;26;20000;-77
2024/04/18 14:57:19;;;;;;;1.42;1.05;;;;;;;;;;6675679;26;19999;-76
2024/04/18 15:00:20;;;;;;;1.88;1.05;;;;;;;;;;6708743;26;19996;-76
2024/04/18 15:03:20;;;;;;;1.10;0.80;;;;;;;;;;6710656;26;19993;-76
2024/04/18 15:06:20;;;;;;;1.40;0.80;;;;;;;;;;6708170;26;20229;-76
2024/04/18 15:09:20;;;;;;;1.27;0.80;;;;;;;;;;6723474;26;19991;-77
2024/04/18 15:12:24;;;;;;;0.97;0.70;;;;;;;;;;6713847;26;19991;-77
2024/04/18 15:15:24;;;;;;;1.05;0.70;;;;;;;;;;6707250;26;19997;-77
2024/04/18 15:18:24;;;;;;;0.80;0.60;;;;;;;;;;6714474;26;20448;-76
2024/04/18 15:21:28;;;;;;;0.60;0.60;;;;;;;;;;6729492;26;20409;-79
2024/04/18 15:24:29;;;;;;;0.75;0.60;;;;;;;;;;6701436;26;20004;-77
2024/04/18 15:27:29;;;;;;;0.90;0.70;;;;;;;;;;6711979;26;20000;-77
2024/04/18 15:30:29;;;;;;;0.60;0.50;;;;;;;;;;6706459;26;20353;-78
2024/04/18 15:33:29;;;;;;;0.50;0.40;;;;;;;;;;6697486;26;20023;-78
2024/04/18 15:36:30;;;;;;;0.60;0.50;;;;;;;;;;6689772;26;19992;-78
2024/04/18 15:39:30;;;;;;;0.70;0.40;;;;;;;;;;6707029;26;20444;-78
2024/04/18 15:42:30;;;;;;;0.63;0.63;;;;;;;;;;6727522;26;20023;-78
2024/04/18 15:45:30;;;;;;;0.73;0.63;;;;;;;;;;6697236;26;20000;-78
2024/04/18 15:48:31;;;;;;;0.80;0.60;;;;;;;;;;6727858;26;20032;-77
2024/04/18 15:51:31;;;;;;;0.90;0.70;;;;;;;;;;6709670;26;19996;-77
2024/04/18 15:54:32;;;;;;;0.80;0.70;;;;;;;;;;6683065;26;20004;-79
2024/04/18 15:57:32;;;;;;;1.27;0.75;;;;;;;;;;6667192;26;20444;-76
2024/04/18 16:00:33;;;;;;;0.70;0.70;;;;;;;;;;6727024;26;20007;-76
2024/04/18 16:03:33;;;;;;;0.80;0.70;;;;;;;;;;6706193;26;19988;-76
2024/04/18 16:06:33;;;;;;;0.93;0.80;;;;;;;;;;6713197;26;20003;-76
2024/04/18 16:09:34;;;;;;;1.67;1.50;;;;;;;;;;6710290;26;20008;-76
2024/04/18 16:12:34;;;;;;;1.30;1.13;;;;;;;;;;6714889;26;19992;-78
2024/04/18 16:15:34;;;;;;;1.70;1.20;;;;;;;;;;6675260;26;20003;-77
2024/04/18 16:18:35;;;;;;;1.50;0.90;;;;;;;;;;6721990;26;19995;-77
2024/04/18 16:21:35;;;;;;;1.52;0.95;;;;;;;;;;6701092;26;20003;-78
2024/04/18 16:24:35;;;;;;;1.13;0.83;;;;;;;;;;6696219;26;19999;-78
2024/04/18 16:27:35;;;;;;;0.57;0.53;;;;;;;;;;6720699;26;20390;-77
2024/04/18 16:30:36;;;;;;;0.70;0.60;;;;;;;;;;6685227;26;20419;-77
2024/04/18 16:33:37;;;;;;;0.80;0.50;;;;;;;;;;6699212;26;19999;-76
2024/04/18 16:36:37;;;;;;;0.50;0.50;;;;;;;;;;6686837;26;20036;-77
2024/04/18 16:39:37;;;;;;;0.70;0.50;;;;;;;;;;6683891;26;20051;-77
2024/04/18 16:42:37;;;;;;;1.10;0.50;;;;;;;;;;6707494;26;20432;-77
2024/04/18 16:45:37;;;;;;;0.97;0.50;;;;;;;;;;6684003;26;20429;-76
2024/04/18 16:48:38;;;;;;;0.33;0.33;;;;;;;;;;6693409;26;20448;-72
2024/04/18 16:51:38;;;;;;;0.63;0.45;;;;;;;;;;6725358;26;20506;-72
2024/04/18 16:54:39;;;;;;;0.50;0.50;;;;;;;;;;6701079;26;20354;-72
2024/04/18 16:57:39;;;;;;;0.87;0.50;;;;;;;;;;6717977;26;20445;-72
2024/04/18 17:00:40;;;;;;;0.43;0.40;;;;;;;;;;6660492;26;20040;-72
2024/04/18 17:03:40;;;;;;;0.93;0.67;;;;;;;;;;6686777;26;20000;-71
2024/04/18 17:06:40;;;;;;;1.43;0.90;;;;;;;;;;6693847;26;20000;-75
2024/04/18 17:09:40;;;;;;;1.53;0.77;;;;;;;;;;6654493;26;20448;-76
2024/04/18 17:12:41;;;;;;;0.77;0.70;;;;;;;;;;6694811;26;20475;-75
2024/04/18 17:15:41;;;;;;;0.70;0.60;;;;;;;;;;6750462;26;20080;-76
2024/04/18 17:18:41;;;;;;;0.50;0.50;;;;;;;;;;6714049;26;20382;-75
2024/04/18 17:21:43;;;;;;;0.77;0.50;;;;;;;;;;6700770;26;20434;-75
2024/04/18 17:24:43;;;;;;;0.88;0.40;;;;;;;;;;6717207;26;20007;-76
2024/04/18 17:27:44;;;;;;;0.60;0.40;;;;;;;;;;6709417;26;20070;-75
2024/04/18 17:30:44;;;;;;;0.30;0.30;;;;;;;;;;6694189;26;20008;-76
2024/04/18 17:33:44;;;;;;;0.47;0.40;;;;;;;;;;6682364;26;20011;-76
2024/04/18 17:36:46;;;;;;;1.70;1.30;;;;;;;;;;6709108;26;20414;-77
2024/04/18 17:39:47;;;;;;;2.33;1.77;;;;;;;;;;6721280;26;20014;-75
2024/04/18 17:42:48;;;;;;;1.55;1.10;;;;;;;;;;6731311;26;20317;-75
2024/04/18 17:45:48;;;;;;;1.40;0.90;;;;;;;;;;6706218;26;20010;-75
2024/04/18 17:48:48;;;;;;;0.80;0.67;;;;;;;;;;6726124;26;20064;-75
2024/04/18 17:51:50;;;;;;;0.70;0.50;;;;;;;;;;6708727;26;20481;-76
2024/04/18 17:54:51;;;;;;;0.60;0.60;;;;;;;;;;6711307;26;20337;-75
2024/04/18 17:57:51;;;;;;;0.63;0.63;;;;;;;;;;6701309;26;20069;-76
2024/04/18 18:00:51;;;;;;;1.03;0.67;;;;;;;;;;6720133;26;20003;-76
2024/04/18 18:03:51;;;;;;;2.13;0.50;;;;;;;;;;6696204;26;20014;-76
2024/04/18 18:06:52;;;;;;;1.03;0.73;;;;;;;;;;6711631;26;20445;-77
2024/04/18 18:09:52;;;;;;;0.53;0.50;;;;;;;;;;6739991;26;20441;-75